sensor_id;sensor_type;location;lat;lon;timestamp;P1;durP1;ratioP1;P2;durP2;ratioP2
48891;SDS011;50130;52.150;5.236;2023-01-28T00:02:40;11.8;;;10.8;;
48891;SDS011;50130;52.150;5.236;2023-01-28T00:04:17;11.7;;;10.7;;
48891;SDS011;50130;52.150;5.236;2023-01-28T00:06:00;11.3;;;10.3;;
48891;SDS011;50130;52.150;5.236;2023-01-28T00:07:38;11.3;;;10.21;;
48891;SDS011;50130;52.150;5.236;2023-01-28T00:10:50;12.3;;;11.2;;
48891;SDS011;50130;52.150;5.236;2023-01-28T00:12:26;10.6;;;9.6;;
48891;SDS011;50130;52.150;5.236;2023-01-28T00:14:03;12.3;;;11.1;;
48891;SDS011;50130;52.150;5.236;2023-01-28T00:15:40;12.4;;;11.3;;
48891;SDS011;50130;52.150;5.236;2023-01-28T00:18:53;12.3;;;11.2;;
48891;SDS011;50130;52.150;5.236;2023-01-28T00:20:30;12.5;;;11.4;;
48891;SDS011;50130;52.150;5.236;2023-01-28T00:22:07;12.1;;;11.0;;
48891;SDS011;50130;52.150;5.236;2023-01-28T00:25:26;12.5;;;11.4;;
48891;SDS011;50130;52.150;5.236;2023-01-28T00:27:02;12.3;;;11.1;;
48891;SDS011;50130;52.150;5.236;2023-01-28T00:28:38;12.2;;;11.1;;
48891;SDS011;50130;52.150;5.236;2023-01-28T00:31:53;13.5;;;12.3;;
48891;SDS011;50130;52.150;5.236;2023-01-28T00:33:30;12.9;;;11.7;;
48891;SDS011;50130;52.150;5.236;2023-01-28T00:35:07;12.0;;;10.9;;
48891;SDS011;50130;52.150;5.236;2023-01-28T00:36:44;12.1;;;11.0;;
48891;SDS011;50130;52.150;5.236;2023-01-28T00:39:56;12.3;;;11.2;;
48891;SDS011;50130;52.150;5.236;2023-01-28T00:41:32;12.5;;;11.3;;
48891;SDS011;50130;52.150;5.236;2023-01-28T00:43:09;13.0;;;11.8;;
48891;SDS011;50130;52.150;5.236;2023-01-28T00:46:22;12.7;;;11.5;;
48891;SDS011;50130;52.150;5.236;2023-01-28T00:47:59;13.0;;;11.8;;
48891;SDS011;50130;52.150;5.236;2023-01-28T00:49:35;12.5;;;11.4;;
48891;SDS011;50130;52.150;5.236;2023-01-28T00:51:12;12.9;;;11.6;;
48891;SDS011;50130;52.150;5.236;2023-01-28T00:54:27;13.2;;;12.0;;
48891;SDS011;50130;52.150;5.236;2023-01-28T00:56:03;12.8;;;11.6;;
48891;SDS011;50130;52.150;5.236;2023-01-28T00:57:42;14.2;;;12.8;;
48891;SDS011;50130;52.150;5.236;2023-01-28T01:00:54;13.5;;;12.2;;
48891;SDS011;50130;52.150;5.236;2023-01-28T01:02:30;13.0;;;11.8;;
48891;SDS011;50130;52.150;5.236;2023-01-28T01:04:08;13.4;;;12.1;;
48891;SDS011;50130;52.150;5.236;2023-01-28T01:07:22;13.5;;;12.2;;
48891;SDS011;50130;52.150;5.236;2023-01-28T01:08:59;13.0;;;11.7;;
48891;SDS011;50130;52.150;5.236;2023-01-28T01:10:36;12.5;;;11.3;;
48891;SDS011;50130;52.150;5.236;2023-01-28T01:12:13;13.1;;;11.8;;
48891;SDS011;50130;52.150;5.236;2023-01-28T01:15:28;14.1;;;12.8;;
48891;SDS011;50130;52.150;5.236;2023-01-28T01:17:04;13.2;;;12.0;;
48891;SDS011;50130;52.150;5.236;2023-01-28T01:18:41;13.1;;;11.9;;
48891;SDS011;50130;52.150;5.236;2023-01-28T01:21:57;12.8;;;11.6;;
48891;SDS011;50130;52.150;5.236;2023-01-28T01:23:33;13.2;;;12.0;;
48891;SDS011;50130;52.150;5.236;2023-01-28T01:25:10;13.2;;;12.0;;
48891;SDS011;50130;52.150;5.236;2023-01-28T01:26:48;13.2;;;12.0;;
48891;SDS011;50130;52.150;5.236;2023-01-28T01:30:01;10.4;;;9.5;;
48891;SDS011;50130;52.150;5.236;2023-01-28T01:31:38;11.4;;;10.3;;
48891;SDS011;50130;52.150;5.236;2023-01-28T01:33:14;11.2;;;10.1;;
48891;SDS011;50130;52.150;5.236;2023-01-28T01:36:27;11.0;;;10.0;;
48891;SDS011;50130;52.150;5.236;2023-01-28T01:38:04;11.2;;;10.21;;
48891;SDS011;50130;52.150;5.236;2023-01-28T01:39:42;11.4;;;10.3;;
48891;SDS011;50130;52.150;5.236;2023-01-28T01:43:00;12.6;;;10.9;;
48891;SDS011;50130;52.150;5.236;2023-01-28T01:44:54;11.8;;;10.6;;
48891;SDS011;50130;52.150;5.236;2023-01-28T01:46:33;13.3;;;11.6;;
48891;SDS011;50130;52.150;5.236;2023-01-28T01:48:18;12.0;;;10.8;;
48891;SDS011;50130;52.150;5.236;2023-01-28T01:49:59;12.2;;;11.0;;
48891;SDS011;50130;52.150;5.236;2023-01-28T01:53:21;12.0;;;10.8;;
48891;SDS011;50130;52.150;5.236;2023-01-28T01:55:02;12.3;;;11.1;;
48891;SDS011;50130;52.150;5.236;2023-01-28T01:56:44;12.5;;;11.3;;
48891;SDS011;50130;52.150;5.236;2023-01-28T01:58:27;12.4;;;11.2;;
48891;SDS011;50130;52.150;5.236;2023-01-28T02:01:45;12.2;;;11.0;;
48891;SDS011;50130;52.150;5.236;2023-01-28T02:03:24;12.8;;;11.6;;
48891;SDS011;50130;52.150;5.236;2023-01-28T02:05:06;11.0;;;10.0;;
48891;SDS011;50130;52.150;5.236;2023-01-28T02:06:45;12.3;;;11.1;;
48891;SDS011;50130;52.150;5.236;2023-01-28T02:09:58;11.7;;;10.6;;
48891;SDS011;50130;52.150;5.236;2023-01-28T02:11:34;12.5;;;11.3;;
48891;SDS011;50130;52.150;5.236;2023-01-28T02:13:11;12.5;;;11.3;;
48891;SDS011;50130;52.150;5.236;2023-01-28T02:21:24;13.7;;;12.2;;
48891;SDS011;50130;52.150;5.236;2023-01-28T02:22:18;13.7;;;12.2;;
48891;SDS011;50130;52.150;5.236;2023-01-28T02:24:28;13.1;;;11.8;;
48891;SDS011;50130;52.150;5.236;2023-01-28T02:27:13;13.6;;;12.3;;
48891;SDS011;50130;52.150;5.236;2023-01-28T02:29:04;13.7;;;12.4;;
48891;SDS011;50130;52.150;5.236;2023-01-28T02:30:51;14.0;;;12.5;;
48891;SDS011;50130;52.150;5.236;2023-01-28T02:32:38;13.1;;;11.7;;
48891;SDS011;50130;52.150;5.236;2023-01-28T02:34:23;13.4;;;12.1;;
48891;SDS011;50130;52.150;5.236;2023-01-28T02:36:13;13.8;;;12.5;;
48891;SDS011;50130;52.150;5.236;2023-01-28T02:38:02;13.9;;;12.5;;
48891;SDS011;50130;52.150;5.236;2023-01-28T02:41:30;14.0;;;12.5;;
48891;SDS011;50130;52.150;5.236;2023-01-28T02:43:13;14.3;;;12.9;;
48891;SDS011;50130;52.150;5.236;2023-01-28T02:44:50;13.4;;;12.1;;
48891;SDS011;50130;52.150;5.236;2023-01-28T02:47:59;13.5;;;12.2;;
48891;SDS011;50130;52.150;5.236;2023-01-28T02:49:36;13.4;;;12.1;;
48891;SDS011;50130;52.150;5.236;2023-01-28T02:51:19;13.6;;;12.3;;
48891;SDS011;50130;52.150;5.236;2023-01-28T02:53:41;13.6;;;12.2;;
48891;SDS011;50130;52.150;5.236;2023-01-28T02:55:50;13.8;;;12.4;;
48891;SDS011;50130;52.150;5.236;2023-01-28T02:57:34;13.2;;;11.9;;
48891;SDS011;50130;52.150;5.236;2023-01-28T02:59:32;13.0;;;11.8;;
48891;SDS011;50130;52.150;5.236;2023-01-28T03:01:17;12.7;;;11.5;;
48891;SDS011;50130;52.150;5.236;2023-01-28T03:03:03;13.5;;;12.2;;
48891;SDS011;50130;52.150;5.236;2023-01-28T03:06:38;13.8;;;12.4;;
48891;SDS011;50130;52.150;5.236;2023-01-28T03:09:25;13.2;;;11.9;;
48891;SDS011;50130;52.150;5.236;2023-01-28T03:36:54;12.9;;;11.7;;
48891;SDS011;50130;52.150;5.236;2023-01-28T03:38:33;13.4;;;12.2;;
48891;SDS011;50130;52.150;5.236;2023-01-28T03:40:18;13.7;;;12.3;;
48891;SDS011;50130;52.150;5.236;2023-01-28T03:41:56;13.5;;;12.1;;
48891;SDS011;50130;52.150;5.236;2023-01-28T03:43:34;13.5;;;12.2;;
48891;SDS011;50130;52.150;5.236;2023-01-28T03:45:13;13.5;;;12.2;;
48891;SDS011;50130;52.150;5.236;2023-01-28T03:48:26;13.5;;;12.2;;
48891;SDS011;50130;52.150;5.236;2023-01-28T03:50:06;13.5;;;12.2;;
48891;SDS011;50130;52.150;5.236;2023-01-28T03:51:45;13.9;;;12.6;;
48891;SDS011;50130;52.150;5.236;2023-01-28T03:53:21;13.8;;;12.4;;
48891;SDS011;50130;52.150;5.236;2023-01-28T03:56:36;13.1;;;11.9;;
48891;SDS011;50130;52.150;5.236;2023-01-28T03:58:13;14.2;;;12.8;;
48891;SDS011;50130;52.150;5.236;2023-01-28T03:59:51;14.0;;;12.7;;
48891;SDS011;50130;52.150;5.236;2023-01-28T04:03:15;13.9;;;12.6;;
48891;SDS011;50130;52.150;5.236;2023-01-28T04:04:53;14.0;;;12.7;;
48891;SDS011;50130;52.150;5.236;2023-01-28T04:06:30;13.9;;;12.6;;
48891;SDS011;50130;52.150;5.236;2023-01-28T04:08:06;14.1;;;12.6;;
48891;SDS011;50130;52.150;5.236;2023-01-28T04:11:20;14.8;;;13.4;;
48891;SDS011;50130;52.150;5.236;2023-01-28T04:12:56;14.4;;;13.0;;
48891;SDS011;50130;52.150;5.236;2023-01-28T04:14:32;14.0;;;12.6;;
48891;SDS011;50130;52.150;5.236;2023-01-28T04:17:45;14.0;;;12.6;;
48891;SDS011;50130;52.150;5.236;2023-01-28T04:19:23;14.4;;;12.9;;
48891;SDS011;50130;52.150;5.236;2023-01-28T04:21:00;14.4;;;13.0;;
48891;SDS011;50130;52.150;5.236;2023-01-28T04:22:36;14.1;;;12.7;;
48891;SDS011;50130;52.150;5.236;2023-01-28T04:25:48;13.8;;;12.5;;
48891;SDS011;50130;52.150;5.236;2023-01-28T04:27:26;14.3;;;12.9;;
48891;SDS011;50130;52.150;5.236;2023-01-28T04:29:02;13.7;;;12.4;;
48891;SDS011;50130;52.150;5.236;2023-01-28T04:32:14;14.0;;;12.7;;
48891;SDS011;50130;52.150;5.236;2023-01-28T04:33:50;14.1;;;12.2;;
48891;SDS011;50130;52.150;5.236;2023-01-28T04:35:26;13.5;;;12.3;;
48891;SDS011;50130;52.150;5.236;2023-01-28T04:38:39;13.6;;;12.3;;
48891;SDS011;50130;52.150;5.236;2023-01-28T04:40:15;13.7;;;12.4;;
48891;SDS011;50130;52.150;5.236;2023-01-28T04:41:52;12.7;;;11.5;;
48891;SDS011;50130;52.150;5.236;2023-01-28T04:43:28;12.9;;;11.7;;
48891;SDS011;50130;52.150;5.236;2023-01-28T04:46:43;13.3;;;12.0;;
48891;SDS011;50130;52.150;5.236;2023-01-28T04:48:19;13.3;;;12.0;;
48891;SDS011;50130;52.150;5.236;2023-01-28T04:49:55;12.8;;;11.5;;
48891;SDS011;50130;52.150;5.236;2023-01-28T04:53:07;12.3;;;11.2;;
48891;SDS011;50130;52.150;5.236;2023-01-28T04:54:44;12.6;;;11.3;;
48891;SDS011;50130;52.150;5.236;2023-01-28T04:56:21;13.0;;;11.7;;
48891;SDS011;50130;52.150;5.236;2023-01-28T04:59:34;12.5;;;11.4;;
48891;SDS011;50130;52.150;5.236;2023-01-28T05:01:10;12.6;;;11.4;;
48891;SDS011;50130;52.150;5.236;2023-01-28T05:02:46;12.5;;;11.2;;
48891;SDS011;50130;52.150;5.236;2023-01-28T05:04:22;12.6;;;11.4;;
48891;SDS011;50130;52.150;5.236;2023-01-28T05:07:35;12.2;;;10.9;;
48891;SDS011;50130;52.150;5.236;2023-01-28T05:09:12;12.1;;;11.0;;
48891;SDS011;50130;52.150;5.236;2023-01-28T05:10:48;12.2;;;11.0;;
48891;SDS011;50130;52.150;5.236;2023-01-28T05:14:01;12.1;;;10.9;;
48891;SDS011;50130;52.150;5.236;2023-01-28T05:15:37;12.1;;;10.9;;
48891;SDS011;50130;52.150;5.236;2023-01-28T05:17:13;12.2;;;11.0;;
48891;SDS011;50130;52.150;5.236;2023-01-28T05:20:26;12.0;;;10.9;;
48891;SDS011;50130;52.150;5.236;2023-01-28T05:22:02;12.1;;;11.0;;
48891;SDS011;50130;52.150;5.236;2023-01-28T05:23:38;12.5;;;11.3;;
48891;SDS011;50130;52.150;5.236;2023-01-28T05:25:14;12.5;;;11.4;;
48891;SDS011;50130;52.150;5.236;2023-01-28T05:28:26;12.3;;;11.1;;
48891;SDS011;50130;52.150;5.236;2023-01-28T05:31:43;12.4;;;11.2;;
48891;SDS011;50130;52.150;5.236;2023-01-28T05:34:55;12.0;;;10.8;;
48891;SDS011;50130;52.150;5.236;2023-01-28T05:36:31;12.5;;;11.3;;
48891;SDS011;50130;52.150;5.236;2023-01-28T05:38:07;12.3;;;11.2;;
48891;SDS011;50130;52.150;5.236;2023-01-28T05:41:20;12.3;;;11.2;;
48891;SDS011;50130;52.150;5.236;2023-01-28T05:42:56;13.9;;;12.5;;
48891;SDS011;50130;52.150;5.236;2023-01-28T05:44:32;13.8;;;12.5;;
48891;SDS011;50130;52.150;5.236;2023-01-28T05:47:44;13.5;;;12.1;;
48891;SDS011;50130;52.150;5.236;2023-01-28T05:49:21;13.6;;;12.2;;
48891;SDS011;50130;52.150;5.236;2023-01-28T05:50:57;14.0;;;12.7;;
48891;SDS011;50130;52.150;5.236;2023-01-28T05:52:34;13.2;;;12.0;;
48891;SDS011;50130;52.150;5.236;2023-01-28T05:55:47;13.5;;;12.2;;
48891;SDS011;50130;52.150;5.236;2023-01-28T05:57:24;13.7;;;12.4;;
48891;SDS011;50130;52.150;5.236;2023-01-28T05:59:00;13.5;;;12.1;;
48891;SDS011;50130;52.150;5.236;2023-01-28T06:02:13;12.8;;;11.7;;
48891;SDS011;50130;52.150;5.236;2023-01-28T06:03:49;13.9;;;12.5;;
48891;SDS011;50130;52.150;5.236;2023-01-28T06:05:25;13.8;;;12.5;;
48891;SDS011;50130;52.150;5.236;2023-01-28T06:08:38;13.0;;;11.8;;
48891;SDS011;50130;52.150;5.236;2023-01-28T06:10:16;13.6;;;12.3;;
48891;SDS011;50130;52.150;5.236;2023-01-28T06:11:53;14.7;;;13.3;;
48891;SDS011;50130;52.150;5.236;2023-01-28T06:13:29;14.6;;;13.2;;
48891;SDS011;50130;52.150;5.236;2023-01-28T06:16:43;14.5;;;13.0;;
48891;SDS011;50130;52.150;5.236;2023-01-28T06:18:18;14.6;;;13.2;;
48891;SDS011;50130;52.150;5.236;2023-01-28T06:19:55;15.5;;;14.0;;
48891;SDS011;50130;52.150;5.236;2023-01-28T06:23:08;15.4;;;14.0;;
48891;SDS011;50130;52.150;5.236;2023-01-28T06:24:45;15.9;;;14.3;;
48891;SDS011;50130;52.150;5.236;2023-01-28T06:26:21;15.9;;;14.4;;
48891;SDS011;50130;52.150;5.236;2023-01-28T06:29:34;16.61;;;14.9;;
48891;SDS011;50130;52.150;5.236;2023-01-28T06:31:11;17.3;;;15.6;;
48891;SDS011;50130;52.150;5.236;2023-01-28T06:32:47;16.8;;;15.0;;
48891;SDS011;50130;52.150;5.236;2023-01-28T06:34:29;16.5;;;14.9;;
48891;SDS011;50130;52.150;5.236;2023-01-28T06:37:44;16.0;;;14.4;;
48891;SDS011;50130;52.150;5.236;2023-01-28T06:39:20;16.3;;;14.7;;
48891;SDS011;50130;52.150;5.236;2023-01-28T06:40:57;16.61;;;14.9;;
48891;SDS011;50130;52.150;5.236;2023-01-28T06:44:10;15.9;;;14.4;;
48891;SDS011;50130;52.150;5.236;2023-01-28T06:45:47;16.7;;;15.1;;
48891;SDS011;50130;52.150;5.236;2023-01-28T06:47:23;16.3;;;14.6;;
48891;SDS011;50130;52.150;5.236;2023-01-28T06:48:59;16.4;;;14.8;;
48891;SDS011;50130;52.150;5.236;2023-01-28T06:52:11;17.5;;;15.5;;
48891;SDS011;50130;52.150;5.236;2023-01-28T06:53:47;16.4;;;14.8;;
48891;SDS011;50130;52.150;5.236;2023-01-28T06:55:23;15.8;;;14.2;;
48891;SDS011;50130;52.150;5.236;2023-01-28T06:58:36;16.3;;;14.7;;
48891;SDS011;50130;52.150;5.236;2023-01-28T07:00:14;16.61;;;14.8;;
48891;SDS011;50130;52.150;5.236;2023-01-28T07:01:51;16.8;;;15.1;;
48891;SDS011;50130;52.150;5.236;2023-01-28T07:05:03;16.8;;;15.0;;
48891;SDS011;50130;52.150;5.236;2023-01-28T07:06:40;17.0;;;15.3;;
48891;SDS011;50130;52.150;5.236;2023-01-28T07:08:16;16.61;;;15.0;;
48891;SDS011;50130;52.150;5.236;2023-01-28T07:09:52;16.11;;;14.5;;
48891;SDS011;50130;52.150;5.236;2023-01-28T07:13:05;17.0;;;15.3;;
48891;SDS011;50130;52.150;5.236;2023-01-28T07:14:41;16.2;;;14.6;;
48891;SDS011;50130;52.150;5.236;2023-01-28T07:16:17;16.9;;;15.2;;
48891;SDS011;50130;52.150;5.236;2023-01-28T07:19:30;18.0;;;16.2;;
48891;SDS011;50130;52.150;5.236;2023-01-28T07:21:06;17.2;;;15.4;;
48891;SDS011;50130;52.150;5.236;2023-01-28T07:22:43;17.11;;;14.9;;
48891;SDS011;50130;52.150;5.236;2023-01-28T07:25:59;15.6;;;14.1;;
48891;SDS011;50130;52.150;5.236;2023-01-28T07:27:36;16.7;;;15.1;;
48891;SDS011;50130;52.150;5.236;2023-01-28T07:29:12;16.7;;;14.8;;
48891;SDS011;50130;52.150;5.236;2023-01-28T07:30:48;17.7;;;15.5;;
48891;SDS011;50130;52.150;5.236;2023-01-28T07:34:02;16.5;;;14.9;;
48891;SDS011;50130;52.150;5.236;2023-01-28T07:35:38;16.9;;;15.1;;
48891;SDS011;50130;52.150;5.236;2023-01-28T07:37:14;14.9;;;13.5;;
48891;SDS011;50130;52.150;5.236;2023-01-28T07:40:27;14.8;;;13.4;;
48891;SDS011;50130;52.150;5.236;2023-01-28T07:42:04;15.1;;;13.6;;
48891;SDS011;50130;52.150;5.236;2023-01-28T07:43:40;13.5;;;12.2;;
48891;SDS011;50130;52.150;5.236;2023-01-28T07:48:30;11.5;;;10.4;;
48891;SDS011;50130;52.150;5.236;2023-01-28T07:50:07;12.5;;;11.2;;
48891;SDS011;50130;52.150;5.236;2023-01-28T07:51:46;13.1;;;11.8;;
48891;SDS011;50130;52.150;5.236;2023-01-28T07:54:58;12.7;;;11.5;;
48891;SDS011;50130;52.150;5.236;2023-01-28T07:56:34;15.0;;;13.5;;
48891;SDS011;50130;52.150;5.236;2023-01-28T07:58:10;13.4;;;12.0;;
48891;SDS011;50130;52.150;5.236;2023-01-28T08:01:23;13.5;;;12.1;;
48891;SDS011;50130;52.150;5.236;2023-01-28T08:03:01;12.3;;;11.1;;
48891;SDS011;50130;52.150;5.236;2023-01-28T08:04:40;12.9;;;11.5;;
48891;SDS011;50130;52.150;5.236;2023-01-28T08:07:53;12.2;;;11.0;;
48891;SDS011;50130;52.150;5.236;2023-01-28T08:09:29;13.1;;;11.7;;
48891;SDS011;50130;52.150;5.236;2023-01-28T08:11:06;14.3;;;12.1;;
48891;SDS011;50130;52.150;5.236;2023-01-28T08:12:49;13.0;;;11.6;;
48891;SDS011;50130;52.150;5.236;2023-01-28T08:16:04;12.7;;;11.3;;
48891;SDS011;50130;52.150;5.236;2023-01-28T08:17:40;13.6;;;12.2;;
48891;SDS011;50130;52.150;5.236;2023-01-28T08:19:17;13.1;;;11.7;;
48891;SDS011;50130;52.150;5.236;2023-01-28T08:22:31;13.0;;;11.2;;
48891;SDS011;50130;52.150;5.236;2023-01-28T08:24:07;12.5;;;11.3;;
48891;SDS011;50130;52.150;5.236;2023-01-28T08:25:43;12.5;;;11.2;;
48891;SDS011;50130;52.150;5.236;2023-01-28T08:27:20;12.5;;;11.3;;
48891;SDS011;50130;52.150;5.236;2023-01-28T08:30:33;12.3;;;11.0;;
48891;SDS011;50130;52.150;5.236;2023-01-28T08:32:10;12.7;;;11.0;;
48891;SDS011;50130;52.150;5.236;2023-01-28T08:33:46;11.4;;;10.21;;
48891;SDS011;50130;52.150;5.236;2023-01-28T08:36:58;12.0;;;10.8;;
48891;SDS011;50130;52.150;5.236;2023-01-28T08:38:34;12.0;;;10.8;;
48891;SDS011;50130;52.150;5.236;2023-01-28T08:40:10;11.5;;;10.4;;
48891;SDS011;50130;52.150;5.236;2023-01-28T08:43:23;11.7;;;10.5;;
48891;SDS011;50130;52.150;5.236;2023-01-28T08:45:00;10.0;;;9.0;;
48891;SDS011;50130;52.150;5.236;2023-01-28T08:46:36;11.1;;;10.0;;
48891;SDS011;50130;52.150;5.236;2023-01-28T08:48:14;10.3;;;9.31;;
48891;SDS011;50130;52.150;5.236;2023-01-28T08:51:28;9.81;;;8.1;;
48891;SDS011;50130;52.150;5.236;2023-01-28T08:53:07;9.9;;;8.9;;
48891;SDS011;50130;52.150;5.236;2023-01-28T08:54:45;11.1;;;9.71;;
48891;SDS011;50130;52.150;5.236;2023-01-28T08:58:00;11.0;;;9.9;;
48891;SDS011;50130;52.150;5.236;2023-01-28T08:59:43;10.8;;;9.71;;
48891;SDS011;50130;52.150;5.236;2023-01-28T09:01:19;11.2;;;10.0;;
48891;SDS011;50130;52.150;5.236;2023-01-28T09:02:56;10.8;;;9.6;;
48891;SDS011;50130;52.150;5.236;2023-01-28T09:06:08;11.1;;;10.0;;
48891;SDS011;50130;52.150;5.236;2023-01-28T09:07:44;11.0;;;9.81;;
48891;SDS011;50130;52.150;5.236;2023-01-28T09:09:21;11.3;;;9.9;;
48891;SDS011;50130;52.150;5.236;2023-01-28T09:12:35;11.1;;;10.0;;
48891;SDS011;50130;52.150;5.236;2023-01-28T09:14:13;11.3;;;10.1;;
48891;SDS011;50130;52.150;5.236;2023-01-28T09:15:50;11.4;;;10.1;;
48891;SDS011;50130;52.150;5.236;2023-01-28T09:17:26;11.1;;;9.9;;
48891;SDS011;50130;52.150;5.236;2023-01-28T09:20:38;11.4;;;10.21;;
48891;SDS011;50130;52.150;5.236;2023-01-28T09:22:15;11.0;;;9.81;;
48891;SDS011;50130;52.150;5.236;2023-01-28T09:23:54;12.2;;;10.9;;
48891;SDS011;50130;52.150;5.236;2023-01-28T09:27:07;11.8;;;10.6;;
48891;SDS011;50130;52.150;5.236;2023-01-28T09:28:43;12.5;;;11.3;;
48891;SDS011;50130;52.150;5.236;2023-01-28T09:30:23;12.1;;;10.8;;
48891;SDS011;50130;52.150;5.236;2023-01-28T09:33:37;13.6;;;12.0;;
48891;SDS011;50130;52.150;5.236;2023-01-28T09:35:16;13.3;;;12.0;;
48891;SDS011;50130;52.150;5.236;2023-01-28T09:36:53;13.7;;;12.2;;
48891;SDS011;50130;52.150;5.236;2023-01-28T09:38:30;13.9;;;12.5;;
48891;SDS011;50130;52.150;5.236;2023-01-28T09:41:55;14.0;;;12.2;;
48891;SDS011;50130;52.150;5.236;2023-01-28T09:43:58;13.0;;;11.7;;
48891;SDS011;50130;52.150;5.236;2023-01-28T09:45:41;12.7;;;11.2;;
48891;SDS011;50130;52.150;5.236;2023-01-28T09:47:23;13.3;;;11.2;;
48891;SDS011;50130;52.150;5.236;2023-01-28T09:49:05;11.5;;;10.4;;
48891;SDS011;50130;52.150;5.236;2023-01-28T09:52:29;10.9;;;9.81;;
48891;SDS011;50130;52.150;5.236;2023-01-28T09:54:13;10.8;;;9.6;;
48891;SDS011;50130;52.150;5.236;2023-01-28T09:56:03;10.5;;;9.5;;
48891;SDS011;50130;52.150;5.236;2023-01-28T09:57:42;9.4;;;8.5;;
48891;SDS011;50130;52.150;5.236;2023-01-28T09:59:24;10.8;;;8.5;;
48891;SDS011;50130;52.150;5.236;2023-01-28T10:03:07;10.8;;;8.5;;
48891;SDS011;50130;52.150;5.236;2023-01-28T10:05:13;9.31;;;8.4;;
48891;SDS011;50130;52.150;5.236;2023-01-28T10:06:57;9.0;;;7.4;;
48891;SDS011;50130;52.150;5.236;2023-01-28T10:09:02;8.2;;;7.4;;
48891;SDS011;50130;52.150;5.236;2023-01-28T10:11:09;9.9;;;7.8;;
48891;SDS011;50130;52.150;5.236;2023-01-28T10:12:59;8.1;;;7.3;;
48891;SDS011;50130;52.150;5.236;2023-01-28T10:14:49;9.0;;;7.1;;
48891;SDS011;50130;52.150;5.236;2023-01-28T10:16:41;7.9;;;6.2;;
48891;SDS011;50130;52.150;5.236;2023-01-28T10:18:25;7.3;;;6.4;;
48891;SDS011;50130;52.150;5.236;2023-01-28T10:21:57;7.3;;;5.5;;
48891;SDS011;50130;52.150;5.236;2023-01-28T10:23:40;7.3;;;5.5;;
48891;SDS011;50130;52.150;5.236;2023-01-28T10:25:30;5.8;;;5.2;;
48891;SDS011;50130;52.150;5.236;2023-01-28T10:27:09;6.7;;;4.91;;
48891;SDS011;50130;52.150;5.236;2023-01-28T10:28:53;8.4;;;5.7;;
48891;SDS011;50130;52.150;5.236;2023-01-28T10:32:22;7.7;;;6.4;;
48891;SDS011;50130;52.150;5.236;2023-01-28T10:34:04;7.6;;;6.4;;
48891;SDS011;50130;52.150;5.236;2023-01-28T10:35:41;7.2;;;6.3;;
48891;SDS011;50130;52.150;5.236;2023-01-28T10:37:18;7.1;;;6.4;;
48891;SDS011;50130;52.150;5.236;2023-01-28T10:40:31;6.9;;;5.7;;
48891;SDS011;50130;52.150;5.236;2023-01-28T10:42:16;5.9;;;5.3;;
48891;SDS011;50130;52.150;5.236;2023-01-28T10:44:01;5.9;;;5.3;;
48891;SDS011;50130;52.150;5.236;2023-01-28T10:45:39;6.0;;;4.2;;
48891;SDS011;50130;52.150;5.236;2023-01-28T10:47:30;8.4;;;4.8;;
48891;SDS011;50130;52.150;5.236;2023-01-28T10:50:53;7.8;;;6.3;;
48891;SDS011;50130;52.150;5.236;2023-01-28T10:52:32;7.6;;;6.7;;
48891;SDS011;50130;52.150;5.236;2023-01-28T10:54:24;7.8;;;5.7;;
48891;SDS011;50130;52.150;5.236;2023-01-28T10:56:03;6.1;;;4.91;;
48891;SDS011;50130;52.150;5.236;2023-01-28T10:59:21;7.4;;;4.61;;
48891;SDS011;50130;52.150;5.236;2023-01-28T11:01:02;6.2;;;4.41;;
48891;SDS011;50130;52.150;5.236;2023-01-28T11:02:42;8.0;;;4.3;;
48891;SDS011;50130;52.150;5.236;2023-01-28T11:04:21;6.7;;;4.3;;
48891;SDS011;50130;52.150;5.236;2023-01-28T11:07:37;5.5;;;4.1;;
48891;SDS011;50130;52.150;5.236;2023-01-28T11:09:21;6.1;;;4.2;;
48891;SDS011;50130;52.150;5.236;2023-01-28T11:10:59;5.7;;;4.3;;
48891;SDS011;50130;52.150;5.236;2023-01-28T11:12:35;5.8;;;4.0;;
48891;SDS011;50130;52.150;5.236;2023-01-28T11:15:56;7.7;;;4.5;;
48891;SDS011;50130;52.150;5.236;2023-01-28T11:17:41;8.71;;;5.11;;
48891;SDS011;50130;52.150;5.236;2023-01-28T11:19:28;5.7;;;4.5;;
48891;SDS011;50130;52.150;5.236;2023-01-28T11:21:14;5.3;;;4.2;;
48891;SDS011;50130;52.150;5.236;2023-01-28T11:24:32;4.8;;;3.6;;
48891;SDS011;50130;52.150;5.236;2023-01-28T11:26:13;6.2;;;4.3;;
48891;SDS011;50130;52.150;5.236;2023-01-28T11:27:53;6.5;;;4.2;;
48891;SDS011;50130;52.150;5.236;2023-01-28T11:29:31;5.4;;;4.1;;
48891;SDS011;50130;52.150;5.236;2023-01-28T11:32:53;6.2;;;4.2;;
48891;SDS011;50130;52.150;5.236;2023-01-28T11:34:46;8.2;;;4.3;;
48891;SDS011;50130;52.150;5.236;2023-01-28T11:36:25;8.31;;;4.1;;
48891;SDS011;50130;52.150;5.236;2023-01-28T11:38:10;5.5;;;4.1;;
48891;SDS011;50130;52.150;5.236;2023-01-28T11:40:01;7.3;;;4.3;;
48891;SDS011;50130;52.150;5.236;2023-01-28T11:41:48;8.81;;;6.0;;
48891;SDS011;50130;52.150;5.236;2023-01-28T11:45:08;6.3;;;4.91;;
48891;SDS011;50130;52.150;5.236;2023-01-28T11:47:25;5.6;;;3.8;;
48891;SDS011;50130;52.150;5.236;2023-01-28T11:49:32;5.6;;;3.8;;
48891;SDS011;50130;52.150;5.236;2023-01-28T11:51:26;6.5;;;3.9;;
48891;SDS011;50130;52.150;5.236;2023-01-28T11:53:16;8.31;;;4.0;;
48891;SDS011;50130;52.150;5.236;2023-01-28T11:55:39;5.3;;;3.9;;
48891;SDS011;50130;52.150;5.236;2023-01-28T11:57:24;6.2;;;3.7;;
48891;SDS011;50130;52.150;5.236;2023-01-28T11:59:16;5.0;;;3.8;;
48891;SDS011;50130;52.150;5.236;2023-01-28T12:01:08;3.7;;;3.3;;
48891;SDS011;50130;52.150;5.236;2023-01-28T12:02:52;6.2;;;3.5;;
48891;SDS011;50130;52.150;5.236;2023-01-28T12:06:38;8.1;;;3.5;;
48891;SDS011;50130;52.150;5.236;2023-01-28T12:10:18;5.9;;;3.3;;
48891;SDS011;50130;52.150;5.236;2023-01-28T12:12:15;4.8;;;3.4;;
48891;SDS011;50130;52.150;5.236;2023-01-28T12:14:15;5.11;;;3.1;;
48891;SDS011;50130;52.150;5.236;2023-01-28T12:16:08;4.8;;;3.2;;
48891;SDS011;50130;52.150;5.236;2023-01-28T12:18:29;5.7;;;3.2;;
48891;SDS011;50130;52.150;5.236;2023-01-28T12:20:21;4.7;;;2.8;;
48891;SDS011;50130;52.150;5.236;2023-01-28T12:22:09;4.7;;;2.8;;
48891;SDS011;50130;52.150;5.236;2023-01-28T12:25:28;5.0;;;3.2;;
48891;SDS011;50130;52.150;5.236;2023-01-28T12:27:22;6.4;;;3.2;;
48891;SDS011;50130;52.150;5.236;2023-01-28T12:29:14;3.6;;;2.9;;
48891;SDS011;50130;52.150;5.236;2023-01-28T12:31:06;5.8;;;2.7;;
48891;SDS011;50130;52.150;5.236;2023-01-28T12:33:05;5.9;;;3.0;;
48891;SDS011;50130;52.150;5.236;2023-01-28T12:35:14;5.0;;;2.8;;
48891;SDS011;50130;52.150;5.236;2023-01-28T12:37:35;5.6;;;2.8;;
48891;SDS011;50130;52.150;5.236;2023-01-28T12:39:28;3.9;;;2.31;;
48891;SDS011;50130;52.150;5.236;2023-01-28T12:41:17;6.2;;;2.8;;
48891;SDS011;50130;52.150;5.236;2023-01-28T12:42:59;6.9;;;2.5;;
48891;SDS011;50130;52.150;5.236;2023-01-28T12:44:41;5.3;;;2.8;;
48891;SDS011;50130;52.150;5.236;2023-01-28T12:48:15;7.8;;;3.1;;
48891;SDS011;50130;52.150;5.236;2023-01-28T12:49:58;5.7;;;3.4;;
48891;SDS011;50130;52.150;5.236;2023-01-28T12:51:49;5.8;;;3.6;;
48891;SDS011;50130;52.150;5.236;2023-01-28T12:53:35;4.5;;;3.5;;
48891;SDS011;50130;52.150;5.236;2023-01-28T12:55:19;5.5;;;3.6;;
48891;SDS011;50130;52.150;5.236;2023-01-28T12:57:13;5.8;;;3.4;;
48891;SDS011;50130;52.150;5.236;2023-01-28T13:00:41;6.1;;;3.5;;
48891;SDS011;50130;52.150;5.236;2023-01-28T13:02:24;5.2;;;3.9;;
48891;SDS011;50130;52.150;5.236;2023-01-28T13:04:05;6.5;;;3.9;;
48891;SDS011;50130;52.150;5.236;2023-01-28T13:05:48;5.3;;;3.7;;
48891;SDS011;50130;52.150;5.236;2023-01-28T13:09:14;6.2;;;3.5;;
48891;SDS011;50130;52.150;5.236;2023-01-28T13:10:53;5.6;;;4.0;;
48891;SDS011;50130;52.150;5.236;2023-01-28T13:12:33;5.2;;;3.6;;
48891;SDS011;50130;52.150;5.236;2023-01-28T13:14:13;6.2;;;3.7;;
48891;SDS011;50130;52.150;5.236;2023-01-28T13:17:27;5.3;;;4.0;;
48891;SDS011;50130;52.150;5.236;2023-01-28T13:19:07;6.3;;;3.6;;